Terminal Aerodrome Forecast
Issued by NWS Binghamton, NY

Home | Current Version | Previous Version | Text Only | Print | Product List | Glossary On
Versions: 1 2 3 4 5 6 7 8 9 10 11 12 13 14 15 16 17 18 19 20 21 22
148
FTUS41 KBGM 121742
TAFSYR
TAF
KSYR 121742Z 1218/1318 VRB05KT 2SM -SN OVC010
     FM122100 27010G15KT 4SM -SHSN OVC015
     FM130500 27015G25KT 2SM -SN BLSN OVC010=

USA.gov is the U.S. government's official web portal to all federal, state and local government web resources and services.